Terminal Aerodrome Forecast
Issued by NWS

Home | Current Version | Previous Version | Text Only | Print | Product List | Glossary On
Versions: 1 2 3 4 5 6 7 8 9 10 11 12 13 14 15 16 17 18 19 20 21
000
FTAK31 PAFA 262337
TAFAMC
TAF
PAMC 262337Z 2700/2724 22008KT P6SM VCSH FEW021 SCT026 OVC060
     FM270600 22003KT 6SM -SN OVC025
     FM270800 21004KT 2SM -SN OVC015
     FM271100 22005KT 1 1/2SM -SN BR OVC015
     FM271600 24010G16KT 1 1/2SM -SN BR OVC015=

USA.gov is the U.S. government's official web portal to all federal, state and local government web resources and services.